createdAt,value
2018-07-31T00:00:55.283Z,14.47
2018-07-31T00:03:24.151Z,16.30
2018-07-31T00:05:52.975Z,14.90
2018-07-31T00:08:21.809Z,14.80
2018-07-31T00:10:50.673Z,12.83
2018-07-31T00:13:19.568Z,23.50
2018-07-31T00:15:48.440Z,17.53
2018-07-31T00:18:17.304Z,15.63
2018-07-31T00:20:46.151Z,16.13
2018-07-31T00:23:14.980Z,17.47
2018-07-31T00:25:43.870Z,15.93
2018-07-31T00:28:12.708Z,20.67
2018-07-31T00:30:41.613Z,13.70
2018-07-31T00:33:10.410Z,15.73
2018-07-31T00:35:39.307Z,15.37
2018-07-31T00:38:08.496Z,14.97
2018-07-31T00:40:37.307Z,17.43
2018-07-31T00:43:06.212Z,14.57
2018-07-31T00:45:35.040Z,16.53
2018-07-31T00:48:03.883Z,16.17
2018-07-31T00:50:32.804Z,16.37
2018-07-31T00:53:01.722Z,14.27
2018-07-31T00:55:30.599Z,16.80
2018-07-31T00:57:59.559Z,20.40
2018-07-31T01:00:28.374Z,19.33
2018-07-31T01:02:57.233Z,18.83
2018-07-31T01:05:26.091Z,20.40
2018-07-31T01:07:54.954Z,20.50
2018-07-31T01:10:23.756Z,16.93
2018-07-31T01:12:52.608Z,23.47
2018-07-31T01:15:21.440Z,24.97
2018-07-31T01:17:50.308Z,18.93
2018-07-31T01:20:19.191Z,16.20
2018-07-31T01:22:48.015Z,18.30
2018-07-31T01:25:16.873Z,20.23
2018-07-31T01:27:45.679Z,15.47
2018-07-31T01:30:14.523Z,17.83
2018-07-31T01:32:43.369Z,15.50
2018-07-31T01:35:12.213Z,13.70
2018-07-31T01:37:41.144Z,16.53
2018-07-31T01:40:10.036Z,18.43
2018-07-31T01:42:38.830Z,15.10
2018-07-31T01:45:07.684Z,19.90
2018-07-31T01:47:36.522Z,18.60
2018-07-31T01:50:05.359Z,19.80
2018-07-31T01:52:34.240Z,20.63
2018-07-31T01:55:03.082Z,17.67
2018-07-31T01:57:31.899Z,16.63
2018-07-31T02:00:00.690Z,15.30
2018-07-31T02:02:29.511Z,20.23
2018-07-31T02:04:58.395Z,21.87
2018-07-31T02:07:27.251Z,23.97
2018-07-31T02:09:56.079Z,17.40
2018-07-31T02:12:24.922Z,20.60
2018-07-31T02:14:53.774Z,15.33
2018-07-31T02:17:22.798Z,17.47
2018-07-31T02:19:51.664Z,17.17
2018-07-31T02:22:20.561Z,17.40
2018-07-31T02:24:49.469Z,16.00
2018-07-31T02:27:18.352Z,18.27
2018-07-31T02:29:52.742Z,16.57
2018-07-31T02:32:21.583Z,18.10
2018-07-31T02:34:50.407Z,18.83
2018-07-31T02:37:19.250Z,14.70
2018-07-31T02:39:48.256Z,20.20
2018-07-31T02:42:17.101Z,15.93
2018-07-31T02:44:45.906Z,15.00
2018-07-31T02:47:14.741Z,15.20
2018-07-31T02:49:43.649Z,18.57
2018-07-31T02:52:12.544Z,18.10
2018-07-31T02:54:41.526Z,18.50
2018-07-31T02:57:10.351Z,26.37
2018-07-31T02:59:39.225Z,25.87
2018-07-31T03:02:08.048Z,17.13
2018-07-31T03:04:36.879Z,18.00
2018-07-31T03:07:06.095Z,19.10
2018-07-31T03:09:34.996Z,15.87
2018-07-31T03:12:03.885Z,19.80
2018-07-31T03:14:32.795Z,16.10
2018-07-31T03:17:01.629Z,19.00
2018-07-31T03:19:30.569Z,23.90
2018-07-31T03:21:59.441Z,18.43
2018-07-31T03:24:28.296Z,26.00
2018-07-31T03:26:57.178Z,15.90
2018-07-31T03:29:26.056Z,26.30
2018-07-31T03:31:55.854Z,22.00
2018-07-31T03:34:25.051Z,19.47
2018-07-31T03:36:53.953Z,20.77
2018-07-31T03:39:22.837Z,25.17
2018-07-31T03:41:51.698Z,24.03
2018-07-31T03:44:20.543Z,16.03
2018-07-31T03:46:49.359Z,18.60
2018-07-31T03:49:18.259Z,30.53
2018-07-31T03:51:47.120Z,17.73
2018-07-31T03:54:15.956Z,21.00
2018-07-31T03:56:44.789Z,19.10
2018-07-31T03:59:13.613Z,16.60
2018-07-31T04:01:42.492Z,18.17
2018-07-31T04:04:11.406Z,22.10
2018-07-31T04:06:40.235Z,19.90
2018-07-31T04:09:11.365Z,20.53
2018-07-31T04:11:40.389Z,21.90
2018-07-31T04:14:09.380Z,22.63
2018-07-31T04:16:38.671Z,28.83
2018-07-31T04:19:07.607Z,22.20
2018-07-31T04:21:36.459Z,24.07
2018-07-31T04:24:05.307Z,23.27
2018-07-31T04:26:34.111Z,27.00
2018-07-31T04:29:02.961Z,30.90
2018-07-31T04:31:31.792Z,23.20
2018-07-31T04:34:00.682Z,25.13
2018-07-31T04:36:29.528Z,29.93
2018-07-31T04:38:58.375Z,30.70
2018-07-31T04:41:27.238Z,25.37
2018-07-31T04:43:56.089Z,26.30
2018-07-31T04:46:24.953Z,20.53
2018-07-31T04:48:53.862Z,25.50
2018-07-31T04:51:22.723Z,17.73
2018-07-31T04:53:51.556Z,21.80
2018-07-31T04:56:20.460Z,20.00
2018-07-31T04:58:49.332Z,17.43
2018-07-31T05:01:18.130Z,22.93
2018-07-31T05:03:46.947Z,22.47
2018-07-31T05:06:15.786Z,15.93
2018-07-31T05:08:44.603Z,23.80
2018-07-31T05:11:13.562Z,18.90
2018-07-31T05:13:42.334Z,16.90
2018-07-31T05:16:11.186Z,31.13
2018-07-31T05:18:40.056Z,38.00
2018-07-31T05:21:08.904Z,24.00
2018-07-31T05:23:37.740Z,19.77
2018-07-31T05:26:06.628Z,26.47
2018-07-31T05:28:35.448Z,22.60
2018-07-31T05:31:04.395Z,19.57
2018-07-31T05:33:33.235Z,26.57
2018-07-31T05:36:02.111Z,18.70
2018-07-31T05:38:31.016Z,18.53
2018-07-31T05:40:59.878Z,17.93
2018-07-31T05:43:28.736Z,21.93
2018-07-31T05:45:57.604Z,19.10
2018-07-31T05:48:26.459Z,17.13
2018-07-31T05:50:55.250Z,19.67
2018-07-31T05:53:24.074Z,20.30
2018-07-31T05:55:53.035Z,21.10
2018-07-31T05:58:21.937Z,19.50
2018-07-31T06:00:50.779Z,26.40
2018-07-31T06:03:19.676Z,19.83
2018-07-31T06:05:48.507Z,19.53
2018-07-31T06:08:17.322Z,20.17
2018-07-31T06:10:46.207Z,19.00
2018-07-31T06:13:15.111Z,16.70
2018-07-31T06:15:44.108Z,18.57
2018-07-31T06:18:13.760Z,14.70
2018-07-31T06:20:42.665Z,22.40
2018-07-31T06:23:11.547Z,17.67
2018-07-31T06:25:40.395Z,26.33
2018-07-31T06:28:09.244Z,16.80
2018-07-31T06:30:38.092Z,20.30
2018-07-31T06:33:07.007Z,19.13
2018-07-31T06:35:35.900Z,18.43
2018-07-31T06:38:04.788Z,19.17
2018-07-31T06:40:33.727Z,21.30
2018-07-31T06:43:02.543Z,21.90
2018-07-31T06:45:31.517Z,18.97
2018-07-31T06:48:00.385Z,22.23
2018-07-31T06:50:29.212Z,22.87
2018-07-31T06:52:58.098Z,22.67
2018-07-31T06:55:26.931Z,16.50
2018-07-31T06:57:55.884Z,20.33
2018-07-31T07:00:24.749Z,16.60
2018-07-31T07:02:53.831Z,16.80
2018-07-31T07:05:22.656Z,25.43
2018-07-31T07:07:51.519Z,19.10
2018-07-31T07:10:20.406Z,15.83
2018-07-31T07:12:49.306Z,18.27
2018-07-31T07:15:18.173Z,15.43
2018-07-31T07:17:47.036Z,20.20
2018-07-31T07:20:15.881Z,17.30
2018-07-31T07:22:44.720Z,15.40
2018-07-31T07:25:13.584Z,15.00
2018-07-31T07:27:42.440Z,16.83
2018-07-31T07:30:11.292Z,17.80
2018-07-31T07:32:40.132Z,27.87
2018-07-31T07:35:09.019Z,28.03
2018-07-31T07:37:37.896Z,14.83
2018-07-31T07:40:06.711Z,16.63
2018-07-31T07:42:35.607Z,15.43
2018-07-31T07:45:04.715Z,21.17
2018-07-31T07:47:33.564Z,13.40
2018-07-31T07:50:02.363Z,23.93
2018-07-31T07:52:31.200Z,16.83
2018-07-31T07:55:00.025Z,15.57
2018-07-31T07:57:28.934Z,14.17
2018-07-31T07:59:57.776Z,18.13
2018-07-31T08:02:26.595Z,14.70
2018-07-31T08:04:55.426Z,18.70
2018-07-31T08:07:24.287Z,13.07
2018-07-31T08:09:53.371Z,14.60
2018-07-31T08:12:22.101Z,15.63
2018-07-31T08:14:50.961Z,22.67
2018-07-31T08:17:19.794Z,20.73
2018-07-31T08:19:48.671Z,16.87
2018-07-31T08:22:17.486Z,13.37
2018-07-31T08:24:46.364Z,15.80
2018-07-31T08:27:15.227Z,13.80
2018-07-31T08:29:44.072Z,27.13
2018-07-31T08:32:12.896Z,13.93
2018-07-31T08:34:41.737Z,19.50
2018-07-31T08:37:10.580Z,15.20
2018-07-31T08:39:39.423Z,16.50
2018-07-31T08:42:09.353Z,13.47
2018-07-31T08:44:38.209Z,14.00
2018-07-31T08:47:07.067Z,17.63
2018-07-31T08:49:35.968Z,14.23
2018-07-31T08:52:04.904Z,17.83
2018-07-31T08:54:33.834Z,24.33
2018-07-31T08:57:03.087Z,16.03
2018-07-31T08:59:32.039Z,11.97
2018-07-31T09:02:00.912Z,12.53
2018-07-31T09:04:29.891Z,16.27
2018-07-31T09:06:58.777Z,10.87
2018-07-31T09:09:27.636Z,14.33
2018-07-31T09:11:56.484Z,11.90
2018-07-31T09:14:25.359Z,15.83
2018-07-31T09:16:54.183Z,19.13
2018-07-31T09:19:23.030Z,11.40
2018-07-31T09:21:51.972Z,14.03
2018-07-31T09:24:20.837Z,11.43
2018-07-31T09:26:49.740Z,14.40
2018-07-31T09:29:18.690Z,14.83
2018-07-31T09:31:47.543Z,11.97
2018-07-31T09:34:16.389Z,15.53
2018-07-31T09:36:45.228Z,13.10
2018-07-31T09:39:14.123Z,16.77
2018-07-31T09:41:42.972Z,13.83
2018-07-31T09:44:11.823Z,10.70
2018-07-31T09:46:40.714Z,13.00
2018-07-31T09:49:09.542Z,13.40
2018-07-31T09:51:38.373Z,11.30
2018-07-31T09:54:07.238Z,11.30
2018-07-31T09:56:36.087Z,13.00
2018-07-31T09:59:04.952Z,11.63
2018-07-31T10:01:33.805Z,14.70
2018-07-31T10:04:02.669Z,14.30
2018-07-31T10:06:31.561Z,14.70
2018-07-31T10:09:00.393Z,14.93
2018-07-31T10:11:29.286Z,13.23
2018-07-31T10:13:58.124Z,13.43
2018-07-31T10:16:26.976Z,16.53
2018-07-31T10:18:55.857Z,10.93
2018-07-31T10:21:24.757Z,15.30
2018-07-31T10:23:53.644Z,14.00
2018-07-31T10:26:22.485Z,11.67
2018-07-31T10:28:51.316Z,9.50
2018-07-31T10:31:26.960Z,11.57
2018-07-31T10:33:55.825Z,9.20
2018-07-31T10:36:24.618Z,10.67
2018-07-31T10:38:53.508Z,11.93
2018-07-31T10:41:22.408Z,14.43
2018-07-31T10:43:51.303Z,13.20
2018-07-31T10:46:20.181Z,10.90
2018-07-31T10:48:49.018Z,13.17
2018-07-31T10:51:17.852Z,11.53
2018-07-31T10:53:46.717Z,9.00
2018-07-31T10:56:15.585Z,9.97
2018-07-31T10:58:44.474Z,8.67
2018-07-31T11:01:13.296Z,10.53
2018-07-31T11:03:42.194Z,9.50
2018-07-31T11:06:10.994Z,10.23
2018-07-31T11:08:39.989Z,9.13
2018-07-31T11:11:08.843Z,17.80
2018-07-31T11:13:37.651Z,10.13
2018-07-31T11:16:06.539Z,8.83
2018-07-31T11:18:35.400Z,10.13
2018-07-31T11:21:04.290Z,10.00
2018-07-31T11:23:33.133Z,19.13
2018-07-31T11:26:01.953Z,13.50
2018-07-31T11:28:30.776Z,8.33
2018-07-31T11:30:59.769Z,13.57
2018-07-31T11:33:28.591Z,9.53
2018-07-31T11:35:57.411Z,7.73
2018-07-31T11:38:26.340Z,12.47
2018-07-31T11:40:55.143Z,8.50
2018-07-31T11:43:23.946Z,14.67
2018-07-31T11:45:52.833Z,7.67
2018-07-31T11:48:21.635Z,11.33
2018-07-31T11:50:50.476Z,7.30
2018-07-31T11:53:19.312Z,10.23
2018-07-31T11:55:48.244Z,7.03
2018-07-31T11:58:17.158Z,6.33
2018-07-31T12:00:45.950Z,6.70
2018-07-31T12:03:14.833Z,6.80
2018-07-31T12:05:43.647Z,7.37
2018-07-31T12:08:12.501Z,5.70
2018-07-31T12:10:41.368Z,7.50
2018-07-31T12:13:10.192Z,6.67
2018-07-31T12:15:39.080Z,4.75
2018-07-31T12:18:07.936Z,5.33
2018-07-31T12:20:36.861Z,6.58
2018-07-31T12:23:05.668Z,7.62
2018-07-31T12:25:34.561Z,5.05
2018-07-31T12:28:03.458Z,4.25
2018-07-31T12:30:32.274Z,4.50
2018-07-31T12:33:01.157Z,3.52
2018-07-31T12:35:30.133Z,3.52
2018-07-31T12:37:59.021Z,5.05
2018-07-31T12:40:27.815Z,4.60
2018-07-31T12:42:56.734Z,4.92
2018-07-31T12:45:25.605Z,5.33
2018-07-31T12:47:54.433Z,3.52
2018-07-31T12:50:23.304Z,3.20
2018-07-31T12:52:52.230Z,12.98
2018-07-31T12:55:21.087Z,3.40
2018-07-31T12:57:49.911Z,10.18
2018-07-31T13:00:18.762Z,3.52
2018-07-31T13:02:47.598Z,5.25
2018-07-31T13:05:16.457Z,4.35
2018-07-31T13:07:45.303Z,4.75
2018-07-31T13:10:14.164Z,5.22
2018-07-31T13:12:43.041Z,8.78
2018-07-31T13:15:18.342Z,5.05
2018-07-31T13:17:47.136Z,3.50
2018-07-31T13:20:15.947Z,3.50
2018-07-31T13:22:44.839Z,9.53
2018-07-31T13:25:13.658Z,3.22
2018-07-31T13:27:42.534Z,3.15
2018-07-31T13:30:11.303Z,3.60
2018-07-31T13:32:40.155Z,3.70
2018-07-31T13:35:09.013Z,2.87
2018-07-31T13:37:37.912Z,4.47
2018-07-31T13:40:06.723Z,3.40
2018-07-31T13:42:35.623Z,2.80
2018-07-31T13:45:04.459Z,3.10
2018-07-31T13:47:33.275Z,6.10
2018-07-31T13:50:02.258Z,5.97
2018-07-31T13:52:31.142Z,6.08
2018-07-31T13:55:00.044Z,6.60
2018-07-31T13:57:28.961Z,4.15
2018-07-31T13:59:57.831Z,4.53
2018-07-31T14:05:24.696Z,3.47
2018-07-31T14:07:53.549Z,4.90
2018-07-31T14:10:22.605Z,4.15
2018-07-31T14:12:51.493Z,5.72
2018-07-31T14:15:20.352Z,3.35
2018-07-31T14:17:49.135Z,3.00
2018-07-31T14:20:18.495Z,3.85
2018-07-31T14:22:47.449Z,3.27
2018-07-31T14:25:16.327Z,5.50
2018-07-31T14:27:45.186Z,3.30
2018-07-31T14:30:14.050Z,3.50
2018-07-31T14:32:42.826Z,3.65
2018-07-31T14:35:11.644Z,6.90
2018-07-31T14:37:41.388Z,2.83
2018-07-31T14:40:10.524Z,5.50
2018-07-31T14:42:39.413Z,3.75
2018-07-31T14:45:08.240Z,2.77
2018-07-31T14:47:37.070Z,3.35
2018-07-31T14:50:05.944Z,8.20
2018-07-31T14:52:34.767Z,3.00
2018-07-31T14:55:03.664Z,3.05
2018-07-31T14:57:32.467Z,2.70
2018-07-31T15:00:01.359Z,3.65
2018-07-31T15:02:30.257Z,3.10
2018-07-31T15:04:59.121Z,3.08
2018-07-31T15:07:27.988Z,3.62
2018-07-31T15:09:56.850Z,8.78
2018-07-31T15:12:25.672Z,6.55
2018-07-31T15:14:54.500Z,4.47
2018-07-31T15:17:23.379Z,7.00
2018-07-31T15:19:52.414Z,4.42
2018-07-31T15:22:21.244Z,5.35
2018-07-31T15:24:50.068Z,7.42
2018-07-31T15:27:18.928Z,5.12
2018-07-31T15:29:47.756Z,5.22
2018-07-31T15:32:16.604Z,5.30
2018-07-31T15:34:45.427Z,3.58
2018-07-31T15:37:14.352Z,4.35
2018-07-31T15:39:43.146Z,4.70
2018-07-31T15:42:12.008Z,3.47
2018-07-31T15:44:40.895Z,3.75
2018-07-31T15:47:09.779Z,3.72
2018-07-31T15:49:38.806Z,5.65
2018-07-31T15:52:07.638Z,4.25
2018-07-31T15:54:36.525Z,3.70
2018-07-31T15:57:05.344Z,9.48
2018-07-31T15:59:34.241Z,6.42
2018-07-31T16:02:03.389Z,5.50
2018-07-31T16:04:32.561Z,5.75
2018-07-31T16:07:01.343Z,8.03
2018-07-31T16:09:30.688Z,6.20
2018-07-31T16:11:59.633Z,7.47
2018-07-31T16:14:29.352Z,5.85
2018-07-31T16:16:58.271Z,5.67
2018-07-31T16:19:27.199Z,5.80
2018-07-31T16:21:56.067Z,4.90
2018-07-31T16:24:24.986Z,7.08
2018-07-31T16:26:53.863Z,4.95
2018-07-31T16:29:22.668Z,8.20
2018-07-31T16:31:51.576Z,5.42
2018-07-31T16:34:20.793Z,11.40
2018-07-31T16:36:49.765Z,6.00
2018-07-31T16:39:18.575Z,5.62
2018-07-31T16:41:47.531Z,7.25
2018-07-31T16:44:16.314Z,5.72
2018-07-31T16:46:45.216Z,4.92
2018-07-31T16:49:14.803Z,4.97
2018-07-31T16:51:43.718Z,6.67
2018-07-31T16:54:12.634Z,6.97
2018-07-31T16:56:41.451Z,6.22
2018-07-31T16:59:10.353Z,5.67
2018-07-31T17:01:39.241Z,10.40
2018-07-31T17:04:08.069Z,5.95
2018-07-31T17:06:36.891Z,6.40
2018-07-31T17:09:10.410Z,6.67
2018-07-31T17:11:39.310Z,5.40
2018-07-31T17:14:08.169Z,7.40
2018-07-31T17:16:37.029Z,9.10
2018-07-31T17:19:06.121Z,5.70
2018-07-31T17:21:34.981Z,6.20
2018-07-31T17:24:03.759Z,7.50
2018-07-31T17:26:32.579Z,8.30
2018-07-31T17:29:01.405Z,6.20
2018-07-31T17:31:30.193Z,10.00
2018-07-31T17:33:59.063Z,8.13
2018-07-31T17:36:28.080Z,9.23
2018-07-31T17:38:56.933Z,7.50
2018-07-31T17:41:25.796Z,9.53
2018-07-31T17:43:54.692Z,8.97
2018-07-31T17:46:23.549Z,12.97
2018-07-31T17:48:52.383Z,10.77
2018-07-31T17:51:24.557Z,8.43
2018-07-31T17:53:53.404Z,9.00
2018-07-31T17:56:22.213Z,9.03
2018-07-31T17:58:52.305Z,8.90
2018-07-31T18:01:21.217Z,10.57
2018-07-31T18:03:50.037Z,14.67
2018-07-31T18:06:18.892Z,10.93
2018-07-31T18:08:47.720Z,11.70
2018-07-31T18:11:17.280Z,10.80
2018-07-31T18:13:46.122Z,15.33
2018-07-31T18:16:14.988Z,12.90
2018-07-31T18:18:43.864Z,17.63
2018-07-31T18:21:12.703Z,13.33
2018-07-31T18:23:41.660Z,12.83
2018-07-31T18:26:10.386Z,13.67
2018-07-31T18:28:39.236Z,12.90
2018-07-31T18:31:08.304Z,16.17
2018-07-31T18:33:37.161Z,15.97
2018-07-31T18:36:06.075Z,16.00
2018-07-31T18:38:34.916Z,15.10
2018-07-31T18:41:03.735Z,22.13
2018-07-31T18:43:32.515Z,12.53
2018-07-31T18:46:01.377Z,20.43
2018-07-31T18:48:30.220Z,14.50
2018-07-31T18:50:59.047Z,15.27
2018-07-31T18:53:27.965Z,12.87
2018-07-31T18:55:56.813Z,17.47
2018-07-31T18:58:25.668Z,19.97
2018-07-31T19:00:54.985Z,16.33
2018-07-31T19:03:23.720Z,20.77
2018-07-31T19:05:52.552Z,21.67
2018-07-31T19:08:21.396Z,20.93
2018-07-31T19:10:50.224Z,18.63
2018-07-31T19:13:19.132Z,16.93
2018-07-31T19:15:47.900Z,16.13
2018-07-31T19:18:16.765Z,17.27
2018-07-31T19:20:45.703Z,24.30
2018-07-31T19:23:14.506Z,19.03
2018-07-31T19:25:43.339Z,18.20
2018-07-31T19:28:12.296Z,16.73
2018-07-31T19:30:41.014Z,24.80
2018-07-31T19:33:09.903Z,20.23
2018-07-31T19:35:38.683Z,24.33
2018-07-31T19:38:07.586Z,17.60
2018-07-31T19:40:36.446Z,17.60
2018-07-31T19:43:05.288Z,17.63
2018-07-31T19:45:34.149Z,19.00
2018-07-31T19:48:03.033Z,18.10
2018-07-31T19:50:31.827Z,18.60
2018-07-31T19:53:00.648Z,18.87
2018-07-31T19:55:29.525Z,16.20
2018-07-31T19:57:58.371Z,18.03
2018-07-31T20:00:27.238Z,17.87
2018-07-31T20:02:56.094Z,16.57
2018-07-31T20:05:24.927Z,35.40
2018-07-31T20:07:53.827Z,30.07
2018-07-31T20:10:22.778Z,24.73
2018-07-31T20:12:51.633Z,18.03
2018-07-31T20:15:20.539Z,18.10
2018-07-31T20:17:49.388Z,19.13
2018-07-31T20:20:18.253Z,17.73
2018-07-31T20:22:47.116Z,17.70
2018-07-31T20:25:15.955Z,17.03
2018-07-31T20:27:44.820Z,21.03
2018-07-31T20:30:13.688Z,16.40
2018-07-31T20:32:42.525Z,21.27
2018-07-31T20:35:11.367Z,21.27
2018-07-31T20:37:40.231Z,21.50
2018-07-31T20:40:09.101Z,20.43
2018-07-31T20:42:37.931Z,15.43
2018-07-31T20:45:06.985Z,19.50
2018-07-31T20:47:36.981Z,16.17
2018-07-31T20:50:05.821Z,17.17
2018-07-31T20:52:34.658Z,19.90
2018-07-31T20:55:03.525Z,30.57
2018-07-31T20:57:32.372Z,21.30
2018-07-31T21:00:01.482Z,17.87
2018-07-31T21:02:30.445Z,17.70
2018-07-31T21:04:59.317Z,16.40
2018-07-31T21:07:28.239Z,18.23
2018-07-31T21:09:57.045Z,22.60
2018-07-31T21:12:25.936Z,22.97
2018-07-31T21:14:54.809Z,22.57
2018-07-31T21:17:23.703Z,19.73
2018-07-31T21:19:52.741Z,21.27
2018-07-31T21:22:21.577Z,24.23
2018-07-31T21:24:50.378Z,16.97
2018-07-31T21:27:19.270Z,19.00
2018-07-31T21:29:48.181Z,23.90
2018-07-31T21:32:19.233Z,24.20
2018-07-31T21:34:48.471Z,25.53
2018-07-31T21:37:17.324Z,22.97
2018-07-31T21:39:46.151Z,22.43
2018-07-31T21:42:14.974Z,23.33
2018-07-31T21:44:43.811Z,19.20
2018-07-31T21:47:12.815Z,22.47
2018-07-31T21:49:41.656Z,18.20
2018-07-31T21:52:10.614Z,18.77
2018-07-31T21:54:39.709Z,19.80
2018-07-31T21:57:08.806Z,26.10
2018-07-31T21:59:37.752Z,19.07
2018-07-31T22:02:06.585Z,23.77
2018-07-31T22:04:35.420Z,18.00
2018-07-31T22:07:04.302Z,17.03
2018-07-31T22:09:37.333Z,21.40
2018-07-31T22:12:06.195Z,20.03
2018-07-31T22:14:35.044Z,22.33
2018-07-31T22:17:03.923Z,20.93
2018-07-31T22:19:32.793Z,19.87
2018-07-31T22:22:01.604Z,21.87
2018-07-31T22:24:30.460Z,21.90
2018-07-31T22:26:59.365Z,20.20
2018-07-31T22:29:28.247Z,22.87
2018-07-31T22:31:57.085Z,21.70
2018-07-31T22:34:26.145Z,23.10
2018-07-31T22:36:55.038Z,18.90
2018-07-31T22:39:23.875Z,20.20
2018-07-31T22:41:52.886Z,19.80
2018-07-31T22:44:21.702Z,23.63
2018-07-31T22:46:50.540Z,30.13
2018-07-31T22:49:19.369Z,21.40
2018-07-31T22:51:48.252Z,20.80
2018-07-31T22:54:17.141Z,20.63
2018-07-31T22:56:46.041Z,24.03
2018-07-31T22:59:14.866Z,24.67
2018-07-31T23:01:43.703Z,20.40
2018-07-31T23:04:12.562Z,22.20
2018-07-31T23:06:41.358Z,21.30
2018-07-31T23:09:11.358Z,27.40
2018-07-31T23:11:40.223Z,22.70
2018-07-31T23:14:09.303Z,21.87
2018-07-31T23:16:38.152Z,25.03
2018-07-31T23:19:06.962Z,29.63
2018-07-31T23:21:36.062Z,28.30
2018-07-31T23:24:04.910Z,21.63
2018-07-31T23:26:33.777Z,27.53
2018-07-31T23:29:02.661Z,26.40
2018-07-31T23:31:31.508Z,28.73
2018-07-31T23:34:00.367Z,21.07
2018-07-31T23:36:29.196Z,24.20
2018-07-31T23:38:58.065Z,24.70
2018-07-31T23:41:26.944Z,26.80
2018-07-31T23:43:55.781Z,22.63
2018-07-31T23:46:24.590Z,24.37
2018-07-31T23:48:53.456Z,22.53
2018-07-31T23:51:22.396Z,20.80
2018-07-31T23:53:51.256Z,23.90
2018-07-31T23:56:20.127Z,26.33
2018-07-31T23:58:48.958Z,22.60
